createdAt,value
2023-05-12T00:03:32.327Z,100
2023-05-12T00:13:32.604Z,100
2023-05-12T00:23:33.282Z,100
2023-05-12T01:33:37.581Z,100
2023-05-12T03:53:47.406Z,100
2023-05-12T04:13:48.529Z,100
2023-05-12T04:53:50.754Z,100
2023-05-12T05:33:52.618Z,100
2023-05-12T05:53:54.276Z,99
2023-05-12T07:13:58.036Z,93
2023-05-12T07:33:58.365Z,91
2023-05-12T07:43:59.433Z,91
2023-05-12T07:54:00.463Z,90
2023-05-12T08:14:01.577Z,90
2023-05-12T08:24:02.127Z,89
2023-05-12T08:34:10.124Z,88
2023-05-12T08:44:03.311Z,88
2023-05-12T08:54:03.515Z,86
2023-05-12T09:04:04.001Z,86
2023-05-12T09:14:05.049Z,84
2023-05-12T09:24:05.626Z,83
2023-05-12T09:34:05.894Z,80
2023-05-12T09:44:06.837Z,79
2023-05-12T09:54:07.783Z,79
2023-05-12T10:14:07.621Z,76
2023-05-12T10:24:08.085Z,75
2023-05-12T10:34:09.057Z,75
2023-05-12T10:44:09.565Z,74
2023-05-12T10:54:10.624Z,72
2023-05-12T11:04:10.836Z,72
2023-05-12T11:14:11.031Z,74
2023-05-12T11:24:11.941Z,71
2023-05-12T11:44:12.881Z,69
2023-05-12T11:54:13.660Z,67
2023-05-12T12:04:14.452Z,68
2023-05-12T12:14:15.261Z,68
2023-05-12T12:24:15.791Z,66
2023-05-12T12:34:16.881Z,65
2023-05-12T12:44:17.607Z,66
2023-05-12T12:54:18.642Z,68
2023-05-12T13:04:19.151Z,65
2023-05-12T13:14:19.498Z,64
2023-05-12T13:24:19.723Z,62
2023-05-12T13:34:20.767Z,64
2023-05-12T13:44:21.736Z,65
2023-05-12T13:54:22.579Z,68
2023-05-12T14:04:23.207Z,70
2023-05-12T14:14:23.844Z,69
2023-05-12T14:24:24.641Z,66
2023-05-12T14:34:24.996Z,66
2023-05-12T14:44:25.523Z,66
2023-05-12T14:54:26.224Z,68
2023-05-12T15:04:26.183Z,71
2023-05-12T15:14:28.475Z,71
2023-05-12T15:24:27.212Z,61
2023-05-12T15:34:28.179Z,60
2023-05-12T15:44:28.753Z,58
2023-05-12T15:54:29.389Z,56
2023-05-12T16:04:30.285Z,56
2023-05-12T16:14:31.083Z,55
2023-05-12T16:24:31.326Z,56
2023-05-12T16:34:32.339Z,58
2023-05-12T16:44:32.826Z,58
2023-05-12T16:54:33.642Z,58
2023-05-12T17:04:34.295Z,60
2023-05-12T17:14:34.550Z,60
2023-05-12T17:24:35.161Z,62
2023-05-12T17:44:36.028Z,65
2023-05-12T17:54:36.431Z,65
2023-05-12T18:04:37.452Z,64
2023-05-12T18:14:38.196Z,66
2023-05-12T18:24:38.400Z,67
2023-05-12T18:34:39.366Z,68
2023-05-12T18:44:39.642Z,69
2023-05-12T18:54:40.135Z,71
2023-05-12T19:04:41.288Z,73
2023-05-12T19:24:41.956Z,78
2023-05-12T19:34:42.875Z,82
2023-05-12T19:44:43.094Z,84
2023-05-12T19:54:43.607Z,88
2023-05-12T20:04:43.973Z,91
2023-05-12T20:14:44.993Z,92
2023-05-12T20:24:45.790Z,92
2023-05-12T20:34:46.604Z,93
2023-05-12T20:54:48.326Z,95
2023-05-12T21:04:49.080Z,95
2023-05-12T21:14:50.225Z,95
2023-05-12T21:24:51.700Z,96
2023-05-12T21:34:51.588Z,96
2023-05-12T21:44:52.073Z,97
2023-05-12T21:54:53.063Z,97
2023-05-12T22:04:53.491Z,96
2023-05-12T22:14:53.885Z,96
2023-05-12T22:24:54.935Z,94
2023-05-12T22:34:55.612Z,92
2023-05-12T22:44:55.863Z,91
2023-05-12T22:54:56.497Z,92
2023-05-12T23:14:57.765Z,94
2023-05-12T23:24:58.785Z,94
2023-05-12T23:34:59.734Z,95
2023-05-12T23:45:00.200Z,95
2023-05-12T23:55:00.974Z,95
